sensor_id;sensor_type;location;lat;lon;timestamp;temperature;humidity
6581;DHT22;3324;50.796;7.228;2024-03-06T00:02:05;8.40;99.90
6581;DHT22;3324;50.796;7.228;2024-03-06T00:04:31;8.40;99.90
6581;DHT22;3324;50.796;7.228;2024-03-06T00:06:56;8.40;99.90
6581;DHT22;3324;50.796;7.228;2024-03-06T00:09:23;8.40;99.90
6581;DHT22;3324;50.796;7.228;2024-03-06T00:11:49;8.40;99.90
6581;DHT22;3324;50.796;7.228;2024-03-06T00:14:16;8.40;99.90
6581;DHT22;3324;50.796;7.228;2024-03-06T00:16:45;8.40;99.90
6581;DHT22;3324;50.796;7.228;2024-03-06T00:19:10;8.40;99.90
6581;DHT22;3324;50.796;7.228;2024-03-06T00:21:36;8.30;99.90
6581;DHT22;3324;50.796;7.228;2024-03-06T00:24:02;8.30;99.90
6581;DHT22;3324;50.796;7.228;2024-03-06T00:26:29;8.30;99.90
6581;DHT22;3324;50.796;7.228;2024-03-06T00:28:54;8.20;99.90
6581;DHT22;3324;50.796;7.228;2024-03-06T00:31:20;8.30;99.90
6581;DHT22;3324;50.796;7.228;2024-03-06T00:33:45;8.30;99.90
6581;DHT22;3324;50.796;7.228;2024-03-06T00:36:11;8.40;99.90
6581;DHT22;3324;50.796;7.228;2024-03-06T00:38:36;8.50;99.90
6581;DHT22;3324;50.796;7.228;2024-03-06T00:41:02;8.50;99.90
6581;DHT22;3324;50.796;7.228;2024-03-06T00:43:27;8.40;99.90
6581;DHT22;3324;50.796;7.228;2024-03-06T00:45:53;8.30;99.90
6581;DHT22;3324;50.796;7.228;2024-03-06T00:48:18;8.30;99.90
6581;DHT22;3324;50.796;7.228;2024-03-06T00:50:45;8.20;99.90
6581;DHT22;3324;50.796;7.228;2024-03-06T00:53:11;8.20;99.90
6581;DHT22;3324;50.796;7.228;2024-03-06T00:55:36;8.20;99.90
6581;DHT22;3324;50.796;7.228;2024-03-06T00:58:02;8.20;99.90
6581;DHT22;3324;50.796;7.228;2024-03-06T01:00:27;8.30;99.90
6581;DHT22;3324;50.796;7.228;2024-03-06T01:02:53;8.40;99.90
6581;DHT22;3324;50.796;7.228;2024-03-06T01:05:18;8.40;99.90
6581;DHT22;3324;50.796;7.228;2024-03-06T01:07:44;8.30;99.90
6581;DHT22;3324;50.796;7.228;2024-03-06T01:10:09;8.40;99.90
6581;DHT22;3324;50.796;7.228;2024-03-06T01:12:35;8.30;99.90
6581;DHT22;3324;50.796;7.228;2024-03-06T01:15:01;8.20;99.90
6581;DHT22;3324;50.796;7.228;2024-03-06T01:17:27;8.20;99.90
6581;DHT22;3324;50.796;7.228;2024-03-06T01:19:52;8.20;99.90
6581;DHT22;3324;50.796;7.228;2024-03-06T01:22:18;8.20;99.90
6581;DHT22;3324;50.796;7.228;2024-03-06T01:24:43;8.10;99.90
6581;DHT22;3324;50.796;7.228;2024-03-06T01:27:09;8.10;99.90
6581;DHT22;3324;50.796;7.228;2024-03-06T01:29:34;8.00;99.90
6581;DHT22;3324;50.796;7.228;2024-03-06T01:32:00;8.10;99.90
6581;DHT22;3324;50.796;7.228;2024-03-06T01:34:26;8.10;99.90
6581;DHT22;3324;50.796;7.228;2024-03-06T01:36:51;8.00;99.90
6581;DHT22;3324;50.796;7.228;2024-03-06T01:39:17;8.00;99.90
6581;DHT22;3324;50.796;7.228;2024-03-06T01:41:46;8.00;99.90
6581;DHT22;3324;50.796;7.228;2024-03-06T01:44:12;8.00;99.90
6581;DHT22;3324;50.796;7.228;2024-03-06T01:46:38;8.00;99.90
6581;DHT22;3324;50.796;7.228;2024-03-06T01:49:03;8.00;99.90
6581;DHT22;3324;50.796;7.228;2024-03-06T01:51:29;7.90;99.90
6581;DHT22;3324;50.796;7.228;2024-03-06T01:53:55;7.90;99.90
6581;DHT22;3324;50.796;7.228;2024-03-06T01:56:20;7.80;99.90
6581;DHT22;3324;50.796;7.228;2024-03-06T01:58:46;7.80;99.90
6581;DHT22;3324;50.796;7.228;2024-03-06T02:01:12;7.80;99.90
6581;DHT22;3324;50.796;7.228;2024-03-06T02:03:38;7.80;99.90
6581;DHT22;3324;50.796;7.228;2024-03-06T02:06:04;7.80;99.90
6581;DHT22;3324;50.796;7.228;2024-03-06T02:08:30;7.80;99.90
6581;DHT22;3324;50.796;7.228;2024-03-06T02:10:56;7.80;99.90
6581;DHT22;3324;50.796;7.228;2024-03-06T02:13:21;7.80;99.90
6581;DHT22;3324;50.796;7.228;2024-03-06T02:15:47;7.80;99.90
6581;DHT22;3324;50.796;7.228;2024-03-06T02:18:13;7.80;99.90
6581;DHT22;3324;50.796;7.228;2024-03-06T02:20:38;7.80;99.90
6581;DHT22;3324;50.796;7.228;2024-03-06T02:23:07;7.80;99.90
6581;DHT22;3324;50.796;7.228;2024-03-06T02:25:32;7.80;99.90
6581;DHT22;3324;50.796;7.228;2024-03-06T02:27:58;7.80;99.90
6581;DHT22;3324;50.796;7.228;2024-03-06T02:30:24;7.70;99.90
6581;DHT22;3324;50.796;7.228;2024-03-06T02:32:49;7.70;99.90
6581;DHT22;3324;50.796;7.228;2024-03-06T02:35:15;7.70;99.90
6581;DHT22;3324;50.796;7.228;2024-03-06T02:37:42;7.70;99.90
6581;DHT22;3324;50.796;7.228;2024-03-06T02:40:09;7.70;99.90
6581;DHT22;3324;50.796;7.228;2024-03-06T02:42:35;7.70;99.90
6581;DHT22;3324;50.796;7.228;2024-03-06T02:45:01;7.70;99.90
6581;DHT22;3324;50.796;7.228;2024-03-06T02:47:27;7.70;99.90
6581;DHT22;3324;50.796;7.228;2024-03-06T02:49:52;7.70;99.90
6581;DHT22;3324;50.796;7.228;2024-03-06T02:52:18;7.70;99.90
6581;DHT22;3324;50.796;7.228;2024-03-06T02:54:43;7.70;99.90
6581;DHT22;3324;50.796;7.228;2024-03-06T02:57:09;7.70;99.90
6581;DHT22;3324;50.796;7.228;2024-03-06T02:59:34;7.70;99.90
6581;DHT22;3324;50.796;7.228;2024-03-06T03:02:00;7.70;99.90
6581;DHT22;3324;50.796;7.228;2024-03-06T03:04:25;7.70;99.90
6581;DHT22;3324;50.796;7.228;2024-03-06T03:06:51;7.70;99.90
6581;DHT22;3324;50.796;7.228;2024-03-06T03:09:17;7.60;99.90
6581;DHT22;3324;50.796;7.228;2024-03-06T03:11:42;7.70;99.90
6581;DHT22;3324;50.796;7.228;2024-03-06T03:14:09;7.70;99.90
6581;DHT22;3324;50.796;7.228;2024-03-06T03:16:34;7.70;99.90
6581;DHT22;3324;50.796;7.228;2024-03-06T03:19:01;7.60;99.90
6581;DHT22;3324;50.796;7.228;2024-03-06T03:21:26;7.60;99.90
6581;DHT22;3324;50.796;7.228;2024-03-06T03:23:52;7.60;99.90
6581;DHT22;3324;50.796;7.228;2024-03-06T03:26:17;7.60;99.90
6581;DHT22;3324;50.796;7.228;2024-03-06T03:28:43;7.60;99.90
6581;DHT22;3324;50.796;7.228;2024-03-06T03:31:09;7.60;99.90
6581;DHT22;3324;50.796;7.228;2024-03-06T03:33:35;7.60;99.90
6581;DHT22;3324;50.796;7.228;2024-03-06T03:36:04;7.50;99.90
6581;DHT22;3324;50.796;7.228;2024-03-06T03:38:29;7.40;99.90
6581;DHT22;3324;50.796;7.228;2024-03-06T03:40:55;7.40;99.90
6581;DHT22;3324;50.796;7.228;2024-03-06T03:43:20;7.40;99.90
6581;DHT22;3324;50.796;7.228;2024-03-06T03:45:46;7.30;99.90
6581;DHT22;3324;50.796;7.228;2024-03-06T03:48:11;7.30;99.90
6581;DHT22;3324;50.796;7.228;2024-03-06T03:50:37;7.30;99.90
6581;DHT22;3324;50.796;7.228;2024-03-06T03:53:03;7.20;99.90
6581;DHT22;3324;50.796;7.228;2024-03-06T03:55:29;7.20;99.90
6581;DHT22;3324;50.796;7.228;2024-03-06T03:57:54;7.20;99.90
6581;DHT22;3324;50.796;7.228;2024-03-06T04:00:20;7.30;99.90
6581;DHT22;3324;50.796;7.228;2024-03-06T04:02:45;7.20;99.90
6581;DHT22;3324;50.796;7.228;2024-03-06T04:05:11;7.20;99.90
6581;DHT22;3324;50.796;7.228;2024-03-06T04:07:37;7.20;99.90
6581;DHT22;3324;50.796;7.228;2024-03-06T04:10:03;7.20;99.90
6581;DHT22;3324;50.796;7.228;2024-03-06T04:12:29;7.20;99.90
6581;DHT22;3324;50.796;7.228;2024-03-06T04:14:54;7.10;99.90
6581;DHT22;3324;50.796;7.228;2024-03-06T04:17:20;7.20;99.90
6581;DHT22;3324;50.796;7.228;2024-03-06T04:19:45;7.20;99.90
6581;DHT22;3324;50.796;7.228;2024-03-06T04:22:13;7.10;99.90
6581;DHT22;3324;50.796;7.228;2024-03-06T04:24:42;7.10;99.90
6581;DHT22;3324;50.796;7.228;2024-03-06T04:27:08;7.10;99.90
6581;DHT22;3324;50.796;7.228;2024-03-06T04:29:33;7.10;99.90
6581;DHT22;3324;50.796;7.228;2024-03-06T04:31:59;7.10;99.90
6581;DHT22;3324;50.796;7.228;2024-03-06T04:34:24;7.00;99.90
6581;DHT22;3324;50.796;7.228;2024-03-06T04:36:50;7.10;99.90
6581;DHT22;3324;50.796;7.228;2024-03-06T04:39:15;7.10;99.90
6581;DHT22;3324;50.796;7.228;2024-03-06T04:41:41;7.00;99.90
6581;DHT22;3324;50.796;7.228;2024-03-06T04:44:06;7.00;99.90
6581;DHT22;3324;50.796;7.228;2024-03-06T04:46:32;7.10;99.90
6581;DHT22;3324;50.796;7.228;2024-03-06T04:48:57;7.00;99.90
6581;DHT22;3324;50.796;7.228;2024-03-06T04:51:23;7.00;99.90
6581;DHT22;3324;50.796;7.228;2024-03-06T04:53:48;7.00;99.90
6581;DHT22;3324;50.796;7.228;2024-03-06T04:56:14;7.00;99.90
6581;DHT22;3324;50.796;7.228;2024-03-06T04:58:40;7.00;99.90
6581;DHT22;3324;50.796;7.228;2024-03-06T05:01:05;7.00;99.90
6581;DHT22;3324;50.796;7.228;2024-03-06T05:03:32;6.90;99.90
6581;DHT22;3324;50.796;7.228;2024-03-06T05:05:57;6.90;99.90
6581;DHT22;3324;50.796;7.228;2024-03-06T05:08:23;6.90;99.90
6581;DHT22;3324;50.796;7.228;2024-03-06T05:10:48;6.80;99.90
6581;DHT22;3324;50.796;7.228;2024-03-06T05:13:13;6.80;99.90
6581;DHT22;3324;50.796;7.228;2024-03-06T05:15:39;6.80;99.90
6581;DHT22;3324;50.796;7.228;2024-03-06T05:18:05;6.80;99.90
6581;DHT22;3324;50.796;7.228;2024-03-06T05:20:30;6.80;99.90
6581;DHT22;3324;50.796;7.228;2024-03-06T05:22:56;6.80;99.90
6581;DHT22;3324;50.796;7.228;2024-03-06T05:25:22;6.80;99.90
6581;DHT22;3324;50.796;7.228;2024-03-06T05:27:47;6.90;99.90
6581;DHT22;3324;50.796;7.228;2024-03-06T05:30:13;6.90;99.90
6581;DHT22;3324;50.796;7.228;2024-03-06T05:32:40;6.80;99.90
6581;DHT22;3324;50.796;7.228;2024-03-06T05:35:06;6.80;99.90
6581;DHT22;3324;50.796;7.228;2024-03-06T05:37:35;6.80;99.90
6581;DHT22;3324;50.796;7.228;2024-03-06T05:40:00;6.80;99.90
6581;DHT22;3324;50.796;7.228;2024-03-06T05:42:26;6.80;99.90
6581;DHT22;3324;50.796;7.228;2024-03-06T05:44:51;6.90;99.90
6581;DHT22;3324;50.796;7.228;2024-03-06T05:47:19;6.90;99.90
6581;DHT22;3324;50.796;7.228;2024-03-06T05:49:45;7.00;99.90
6581;DHT22;3324;50.796;7.228;2024-03-06T05:52:11;6.90;99.90
6581;DHT22;3324;50.796;7.228;2024-03-06T05:54:36;7.00;99.90
6581;DHT22;3324;50.796;7.228;2024-03-06T05:57:02;7.00;99.90
6581;DHT22;3324;50.796;7.228;2024-03-06T05:59:28;6.80;99.90
6581;DHT22;3324;50.796;7.228;2024-03-06T06:01:54;6.70;99.90
6581;DHT22;3324;50.796;7.228;2024-03-06T06:04:20;6.80;99.90
6581;DHT22;3324;50.796;7.228;2024-03-06T06:06:45;6.70;99.90
6581;DHT22;3324;50.796;7.228;2024-03-06T06:09:10;6.70;99.90
6581;DHT22;3324;50.796;7.228;2024-03-06T06:11:44;6.70;99.90
6581;DHT22;3324;50.796;7.228;2024-03-06T06:14:09;6.60;99.90
6581;DHT22;3324;50.796;7.228;2024-03-06T06:16:38;6.60;99.90
6581;DHT22;3324;50.796;7.228;2024-03-06T06:19:04;6.60;99.90
6581;DHT22;3324;50.796;7.228;2024-03-06T06:21:29;6.50;99.90
6581;DHT22;3324;50.796;7.228;2024-03-06T06:23:55;6.50;99.90
6581;DHT22;3324;50.796;7.228;2024-03-06T06:26:21;6.40;99.90
6581;DHT22;3324;50.796;7.228;2024-03-06T06:28:47;6.40;99.90
6581;DHT22;3324;50.796;7.228;2024-03-06T06:31:12;6.40;99.90
6581;DHT22;3324;50.796;7.228;2024-03-06T06:33:38;6.40;99.90
6581;DHT22;3324;50.796;7.228;2024-03-06T06:36:03;6.30;99.90
6581;DHT22;3324;50.796;7.228;2024-03-06T06:38:29;6.30;99.90
6581;DHT22;3324;50.796;7.228;2024-03-06T06:40:55;6.30;99.90
6581;DHT22;3324;50.796;7.228;2024-03-06T06:43:20;6.20;99.90
6581;DHT22;3324;50.796;7.228;2024-03-06T06:45:46;6.30;99.90
6581;DHT22;3324;50.796;7.228;2024-03-06T06:48:11;6.30;99.90
6581;DHT22;3324;50.796;7.228;2024-03-06T06:50:37;6.30;99.90
6581;DHT22;3324;50.796;7.228;2024-03-06T06:53:02;6.40;99.90
6581;DHT22;3324;50.796;7.228;2024-03-06T06:55:28;6.40;99.90
6581;DHT22;3324;50.796;7.228;2024-03-06T06:57:53;6.40;99.90
6581;DHT22;3324;50.796;7.228;2024-03-06T07:00:19;6.40;99.90
6581;DHT22;3324;50.796;7.228;2024-03-06T07:02:47;6.40;99.90
6581;DHT22;3324;50.796;7.228;2024-03-06T07:05:12;6.40;99.90
6581;DHT22;3324;50.796;7.228;2024-03-06T07:07:38;6.40;99.90
6581;DHT22;3324;50.796;7.228;2024-03-06T07:10:04;6.40;99.90
6581;DHT22;3324;50.796;7.228;2024-03-06T07:12:30;6.50;99.90
6581;DHT22;3324;50.796;7.228;2024-03-06T07:14:56;6.50;99.90
6581;DHT22;3324;50.796;7.228;2024-03-06T07:17:21;6.50;99.90
6581;DHT22;3324;50.796;7.228;2024-03-06T07:19:47;6.50;99.90
6581;DHT22;3324;50.796;7.228;2024-03-06T07:22:12;6.50;99.90
6581;DHT22;3324;50.796;7.228;2024-03-06T07:24:38;6.50;99.90
6581;DHT22;3324;50.796;7.228;2024-03-06T07:27:03;6.50;99.90
6581;DHT22;3324;50.796;7.228;2024-03-06T07:29:29;6.50;99.90
6581;DHT22;3324;50.796;7.228;2024-03-06T07:31:55;6.60;99.90
6581;DHT22;3324;50.796;7.228;2024-03-06T07:34:20;6.50;99.90
6581;DHT22;3324;50.796;7.228;2024-03-06T07:36:47;6.50;99.90
6581;DHT22;3324;50.796;7.228;2024-03-06T07:39:15;6.40;99.90
6581;DHT22;3324;50.796;7.228;2024-03-06T07:41:41;6.40;99.90
6581;DHT22;3324;50.796;7.228;2024-03-06T07:44:06;6.50;99.90
6581;DHT22;3324;50.796;7.228;2024-03-06T07:46:34;6.50;99.90
6581;DHT22;3324;50.796;7.228;2024-03-06T07:48:59;6.50;99.90
6581;DHT22;3324;50.796;7.228;2024-03-06T07:51:25;6.50;99.90
6581;DHT22;3324;50.796;7.228;2024-03-06T07:53:50;6.50;99.90
6581;DHT22;3324;50.796;7.228;2024-03-06T07:56:16;6.50;99.90
6581;DHT22;3324;50.796;7.228;2024-03-06T07:58:42;6.50;99.90
6581;DHT22;3324;50.796;7.228;2024-03-06T08:01:08;6.60;99.90
6581;DHT22;3324;50.796;7.228;2024-03-06T08:03:33;6.60;99.90
6581;DHT22;3324;50.796;7.228;2024-03-06T08:05:59;6.50;99.90
6581;DHT22;3324;50.796;7.228;2024-03-06T08:08:25;6.50;99.90
6581;DHT22;3324;50.796;7.228;2024-03-06T08:10:51;6.50;99.90
6581;DHT22;3324;50.796;7.228;2024-03-06T08:13:16;6.50;99.90
6581;DHT22;3324;50.796;7.228;2024-03-06T08:15:44;6.40;99.90
6581;DHT22;3324;50.796;7.228;2024-03-06T08:18:10;6.40;99.90
6581;DHT22;3324;50.796;7.228;2024-03-06T08:20:35;6.40;99.90
6581;DHT22;3324;50.796;7.228;2024-03-06T08:23:01;6.50;99.90
6581;DHT22;3324;50.796;7.228;2024-03-06T08:25:26;6.50;99.90
6581;DHT22;3324;50.796;7.228;2024-03-06T08:27:52;6.60;99.90
6581;DHT22;3324;50.796;7.228;2024-03-06T08:30:17;6.50;99.90
6581;DHT22;3324;50.796;7.228;2024-03-06T08:32:43;6.60;99.90
6581;DHT22;3324;50.796;7.228;2024-03-06T08:35:09;6.60;99.90
6581;DHT22;3324;50.796;7.228;2024-03-06T08:37:38;6.80;99.90
6581;DHT22;3324;50.796;7.228;2024-03-06T08:40:05;6.80;99.90
6581;DHT22;3324;50.796;7.228;2024-03-06T08:42:30;6.90;99.90
6581;DHT22;3324;50.796;7.228;2024-03-06T08:44:56;7.00;99.90
6581;DHT22;3324;50.796;7.228;2024-03-06T08:47:22;7.10;99.90
6581;DHT22;3324;50.796;7.228;2024-03-06T08:49:47;7.30;99.90
6581;DHT22;3324;50.796;7.228;2024-03-06T08:52:13;7.30;99.90
6581;DHT22;3324;50.796;7.228;2024-03-06T08:54:41;7.30;99.90
6581;DHT22;3324;50.796;7.228;2024-03-06T08:57:07;7.20;99.90
6581;DHT22;3324;50.796;7.228;2024-03-06T08:59:34;7.20;99.90
6581;DHT22;3324;50.796;7.228;2024-03-06T09:02:10;7.30;99.90
6581;DHT22;3324;50.796;7.228;2024-03-06T09:04:36;7.40;99.90
6581;DHT22;3324;50.796;7.228;2024-03-06T09:07:02;7.40;99.90
6581;DHT22;3324;50.796;7.228;2024-03-06T09:09:27;7.40;99.90
6581;DHT22;3324;50.796;7.228;2024-03-06T09:11:54;7.50;99.90
6581;DHT22;3324;50.796;7.228;2024-03-06T09:14:19;7.50;99.90
6581;DHT22;3324;50.796;7.228;2024-03-06T09:16:45;7.50;99.90
6581;DHT22;3324;50.796;7.228;2024-03-06T09:19:11;7.60;99.90
6581;DHT22;3324;50.796;7.228;2024-03-06T09:21:36;7.70;99.90
6581;DHT22;3324;50.796;7.228;2024-03-06T09:24:02;7.80;99.90
6581;DHT22;3324;50.796;7.228;2024-03-06T09:26:27;7.80;99.90
6581;DHT22;3324;50.796;7.228;2024-03-06T09:28:53;7.90;99.90
6581;DHT22;3324;50.796;7.228;2024-03-06T09:31:18;8.10;99.90
6581;DHT22;3324;50.796;7.228;2024-03-06T09:33:44;8.20;99.90
6581;DHT22;3324;50.796;7.228;2024-03-06T09:36:11;8.20;99.90
6581;DHT22;3324;50.796;7.228;2024-03-06T09:38:39;8.30;99.90
6581;DHT22;3324;50.796;7.228;2024-03-06T09:41:06;8.40;99.90
6581;DHT22;3324;50.796;7.228;2024-03-06T09:43:32;8.40;99.90
6581;DHT22;3324;50.796;7.228;2024-03-06T09:45:58;8.50;99.90
6581;DHT22;3324;50.796;7.228;2024-03-06T09:48:23;8.60;99.90
6581;DHT22;3324;50.796;7.228;2024-03-06T09:50:49;8.60;99.90
6581;DHT22;3324;50.796;7.228;2024-03-06T09:53:16;8.60;99.90
6581;DHT22;3324;50.796;7.228;2024-03-06T09:55:42;8.70;99.90
6581;DHT22;3324;50.796;7.228;2024-03-06T09:58:08;8.80;99.90
6581;DHT22;3324;50.796;7.228;2024-03-06T10:00:36;9.00;99.90
6581;DHT22;3324;50.796;7.228;2024-03-06T10:03:02;9.10;99.90
6581;DHT22;3324;50.796;7.228;2024-03-06T10:05:33;9.10;99.90
6581;DHT22;3324;50.796;7.228;2024-03-06T10:08:03;9.20;99.90
6581;DHT22;3324;50.796;7.228;2024-03-06T10:10:31;9.10;99.90
6581;DHT22;3324;50.796;7.228;2024-03-06T10:12:57;9.20;99.90
6581;DHT22;3324;50.796;7.228;2024-03-06T10:15:25;9.30;99.90
6581;DHT22;3324;50.796;7.228;2024-03-06T10:17:51;9.40;99.90
6581;DHT22;3324;50.796;7.228;2024-03-06T10:20:18;9.50;99.90
6581;DHT22;3324;50.796;7.228;2024-03-06T10:22:47;9.60;99.90
6581;DHT22;3324;50.796;7.228;2024-03-06T10:25:12;9.70;99.90
6581;DHT22;3324;50.796;7.228;2024-03-06T10:27:38;9.80;99.90
6581;DHT22;3324;50.796;7.228;2024-03-06T10:30:03;9.80;99.90
6581;DHT22;3324;50.796;7.228;2024-03-06T10:32:30;9.90;99.90
6581;DHT22;3324;50.796;7.228;2024-03-06T10:34:55;10.00;99.90
6581;DHT22;3324;50.796;7.228;2024-03-06T10:37:21;10.00;99.90
6581;DHT22;3324;50.796;7.228;2024-03-06T10:39:47;10.00;99.90
6581;DHT22;3324;50.796;7.228;2024-03-06T10:42:14;10.00;99.90
6581;DHT22;3324;50.796;7.228;2024-03-06T10:44:43;10.10;99.90
6581;DHT22;3324;50.796;7.228;2024-03-06T10:47:13;10.20;99.90
6581;DHT22;3324;50.796;7.228;2024-03-06T10:49:40;10.40;99.90
6581;DHT22;3324;50.796;7.228;2024-03-06T10:52:08;10.50;99.90
6581;DHT22;3324;50.796;7.228;2024-03-06T10:54:34;10.60;99.90
6581;DHT22;3324;50.796;7.228;2024-03-06T10:57:02;10.60;99.90
6581;DHT22;3324;50.796;7.228;2024-03-06T10:59:28;10.70;99.90
6581;DHT22;3324;50.796;7.228;2024-03-06T11:01:58;10.70;99.90
6581;DHT22;3324;50.796;7.228;2024-03-06T11:04:29;10.90;99.90
6581;DHT22;3324;50.796;7.228;2024-03-06T11:06:56;10.90;99.90
6581;DHT22;3324;50.796;7.228;2024-03-06T11:09:22;10.90;99.90
6581;DHT22;3324;50.796;7.228;2024-03-06T11:11:49;11.00;99.90
6581;DHT22;3324;50.796;7.228;2024-03-06T11:14:14;11.00;99.90
6581;DHT22;3324;50.796;7.228;2024-03-06T11:19:28;11.20;99.90
6581;DHT22;3324;50.796;7.228;2024-03-06T11:21:54;11.40;99.90
6581;DHT22;3324;50.796;7.228;2024-03-06T11:24:21;11.40;99.90
6581;DHT22;3324;50.796;7.228;2024-03-06T11:26:47;11.40;99.90
6581;DHT22;3324;50.796;7.228;2024-03-06T11:29:18;11.50;99.90
6581;DHT22;3324;50.796;7.228;2024-03-06T11:32:01;11.40;99.90
6581;DHT22;3324;50.796;7.228;2024-03-06T11:34:28;11.50;99.90
6581;DHT22;3324;50.796;7.228;2024-03-06T11:36:58;11.60;99.90
6581;DHT22;3324;50.796;7.228;2024-03-06T11:39:24;11.60;99.90
6581;DHT22;3324;50.796;7.228;2024-03-06T11:41:53;11.60;99.90
6581;DHT22;3324;50.796;7.228;2024-03-06T11:44:19;11.50;99.90
6581;DHT22;3324;50.796;7.228;2024-03-06T11:46:49;11.40;99.90
6581;DHT22;3324;50.796;7.228;2024-03-06T11:49:16;11.30;99.90
6581;DHT22;3324;50.796;7.228;2024-03-06T11:51:47;11.40;99.90
6581;DHT22;3324;50.796;7.228;2024-03-06T11:54:13;11.50;99.90
6581;DHT22;3324;50.796;7.228;2024-03-06T11:56:39;11.60;99.90
6581;DHT22;3324;50.796;7.228;2024-03-06T11:59:05;11.70;99.90
6581;DHT22;3324;50.796;7.228;2024-03-06T12:01:33;11.80;99.90
6581;DHT22;3324;50.796;7.228;2024-03-06T12:03:58;11.90;99.90
6581;DHT22;3324;50.796;7.228;2024-03-06T12:06:24;12.00;99.90
6581;DHT22;3324;50.796;7.228;2024-03-06T12:08:51;12.10;99.90
6581;DHT22;3324;50.796;7.228;2024-03-06T12:11:18;12.10;99.90
6581;DHT22;3324;50.796;7.228;2024-03-06T12:13:44;12.20;99.90
6581;DHT22;3324;50.796;7.228;2024-03-06T12:16:10;12.20;99.90
6581;DHT22;3324;50.796;7.228;2024-03-06T12:18:36;12.30;99.90
6581;DHT22;3324;50.796;7.228;2024-03-06T12:21:02;12.40;99.90
6581;DHT22;3324;50.796;7.228;2024-03-06T12:23:28;12.60;99.90
6581;DHT22;3324;50.796;7.228;2024-03-06T12:28:28;12.70;99.90
6581;DHT22;3324;50.796;7.228;2024-03-06T12:30:54;12.80;99.90
6581;DHT22;3324;50.796;7.228;2024-03-06T12:33:19;12.90;99.90
6581;DHT22;3324;50.796;7.228;2024-03-06T12:35:45;13.00;99.90
6581;DHT22;3324;50.796;7.228;2024-03-06T12:38:14;13.10;99.90
6581;DHT22;3324;50.796;7.228;2024-03-06T12:40:41;13.10;99.90
6581;DHT22;3324;50.796;7.228;2024-03-06T12:43:06;13.20;99.90
6581;DHT22;3324;50.796;7.228;2024-03-06T12:45:32;13.30;99.90
6581;DHT22;3324;50.796;7.228;2024-03-06T12:47:58;13.40;99.90
6581;DHT22;3324;50.796;7.228;2024-03-06T12:50:23;13.50;99.90
6581;DHT22;3324;50.796;7.228;2024-03-06T12:52:49;13.60;99.90
6581;DHT22;3324;50.796;7.228;2024-03-06T12:55:14;13.60;99.90
6581;DHT22;3324;50.796;7.228;2024-03-06T12:57:40;13.80;99.90
6581;DHT22;3324;50.796;7.228;2024-03-06T13:00:05;13.80;99.90
6581;DHT22;3324;50.796;7.228;2024-03-06T13:02:37;13.80;99.90
6581;DHT22;3324;50.796;7.228;2024-03-06T13:05:02;13.80;99.90
6581;DHT22;3324;50.796;7.228;2024-03-06T13:07:28;13.90;99.90
6581;DHT22;3324;50.796;7.228;2024-03-06T13:09:56;14.00;99.90
6581;DHT22;3324;50.796;7.228;2024-03-06T13:12:21;14.10;99.90
6581;DHT22;3324;50.796;7.228;2024-03-06T13:14:47;14.20;99.90
6581;DHT22;3324;50.796;7.228;2024-03-06T13:17:12;14.30;99.90
6581;DHT22;3324;50.796;7.228;2024-03-06T13:19:38;14.40;99.90
6581;DHT22;3324;50.796;7.228;2024-03-06T13:22:03;14.40;99.90
6581;DHT22;3324;50.796;7.228;2024-03-06T13:24:32;14.50;99.90
6581;DHT22;3324;50.796;7.228;2024-03-06T13:26:59;14.70;99.90
6581;DHT22;3324;50.796;7.228;2024-03-06T13:29:24;14.70;99.90
6581;DHT22;3324;50.796;7.228;2024-03-06T13:31:50;14.90;99.90
6581;DHT22;3324;50.796;7.228;2024-03-06T13:34:15;15.00;99.90
6581;DHT22;3324;50.796;7.228;2024-03-06T13:36:42;15.10;99.90
6581;DHT22;3324;50.796;7.228;2024-03-06T13:39:08;15.10;99.90
6581;DHT22;3324;50.796;7.228;2024-03-06T13:41:34;15.20;99.90
6581;DHT22;3324;50.796;7.228;2024-03-06T13:44:00;15.10;99.90
6581;DHT22;3324;50.796;7.228;2024-03-06T13:46:25;15.20;99.90
6581;DHT22;3324;50.796;7.228;2024-03-06T13:48:51;15.30;99.90
6581;DHT22;3324;50.796;7.228;2024-03-06T13:51:16;15.30;99.90
6581;DHT22;3324;50.796;7.228;2024-03-06T13:53:41;15.40;99.90
6581;DHT22;3324;50.796;7.228;2024-03-06T13:56:07;15.50;99.90
6581;DHT22;3324;50.796;7.228;2024-03-06T13:58:33;15.50;99.90
6581;DHT22;3324;50.796;7.228;2024-03-06T14:00:59;15.50;99.90
6581;DHT22;3324;50.796;7.228;2024-03-06T14:03:25;15.60;99.90
6581;DHT22;3324;50.796;7.228;2024-03-06T14:05:56;15.70;99.90
6581;DHT22;3324;50.796;7.228;2024-03-06T14:08:22;15.70;99.90
6581;DHT22;3324;50.796;7.228;2024-03-06T14:10:47;15.70;99.90
6581;DHT22;3324;50.796;7.228;2024-03-06T14:13:13;15.70;99.90
6581;DHT22;3324;50.796;7.228;2024-03-06T14:15:38;15.70;99.90
6581;DHT22;3324;50.796;7.228;2024-03-06T14:18:04;15.80;99.90
6581;DHT22;3324;50.796;7.228;2024-03-06T14:20:31;15.90;99.90
6581;DHT22;3324;50.796;7.228;2024-03-06T14:22:56;15.70;99.90
6581;DHT22;3324;50.796;7.228;2024-03-06T14:25:22;15.50;99.90
6581;DHT22;3324;50.796;7.228;2024-03-06T14:27:48;15.40;99.90
6581;DHT22;3324;50.796;7.228;2024-03-06T14:30:14;15.30;99.90
6581;DHT22;3324;50.796;7.228;2024-03-06T14:32:40;15.30;99.90
6581;DHT22;3324;50.796;7.228;2024-03-06T14:35:07;15.40;99.90
6581;DHT22;3324;50.796;7.228;2024-03-06T14:37:33;15.10;99.90
6581;DHT22;3324;50.796;7.228;2024-03-06T14:39:58;14.90;99.90
6581;DHT22;3324;50.796;7.228;2024-03-06T14:42:23;14.70;99.90
6581;DHT22;3324;50.796;7.228;2024-03-06T14:44:49;14.40;99.90
6581;DHT22;3324;50.796;7.228;2024-03-06T14:47:15;14.30;99.90
6581;DHT22;3324;50.796;7.228;2024-03-06T14:49:42;14.20;99.90
6581;DHT22;3324;50.796;7.228;2024-03-06T14:52:07;14.20;99.90
6581;DHT22;3324;50.796;7.228;2024-03-06T14:54:34;14.10;99.90
6581;DHT22;3324;50.796;7.228;2024-03-06T14:57:00;14.20;99.90
6581;DHT22;3324;50.796;7.228;2024-03-06T14:59:25;14.40;99.90
6581;DHT22;3324;50.796;7.228;2024-03-06T15:01:51;14.40;99.90
6581;DHT22;3324;50.796;7.228;2024-03-06T15:04:16;14.30;99.90
6581;DHT22;3324;50.796;7.228;2024-03-06T15:06:42;14.20;99.90
6581;DHT22;3324;50.796;7.228;2024-03-06T15:09:08;14.20;99.90
6581;DHT22;3324;50.796;7.228;2024-03-06T15:11:41;14.10;99.90
6581;DHT22;3324;50.796;7.228;2024-03-06T15:14:07;14.00;99.90
6581;DHT22;3324;50.796;7.228;2024-03-06T15:16:33;14.00;99.90
6581;DHT22;3324;50.796;7.228;2024-03-06T15:18:58;14.00;99.90
6581;DHT22;3324;50.796;7.228;2024-03-06T15:21:24;13.90;99.90
6581;DHT22;3324;50.796;7.228;2024-03-06T15:23:49;14.00;99.90
6581;DHT22;3324;50.796;7.228;2024-03-06T15:26:16;14.00;99.90
6581;DHT22;3324;50.796;7.228;2024-03-06T15:28:42;14.00;99.90
6581;DHT22;3324;50.796;7.228;2024-03-06T15:31:07;14.00;99.90
6581;DHT22;3324;50.796;7.228;2024-03-06T15:33:33;13.90;99.90
6581;DHT22;3324;50.796;7.228;2024-03-06T15:35:58;13.80;99.90
6581;DHT22;3324;50.796;7.228;2024-03-06T15:38:25;13.70;99.90
6581;DHT22;3324;50.796;7.228;2024-03-06T15:40:51;13.70;99.90
6581;DHT22;3324;50.796;7.228;2024-03-06T15:43:17;13.70;99.90
6581;DHT22;3324;50.796;7.228;2024-03-06T15:45:43;13.70;99.90
6581;DHT22;3324;50.796;7.228;2024-03-06T15:48:08;13.60;99.90
6581;DHT22;3324;50.796;7.228;2024-03-06T15:50:39;13.50;99.90
6581;DHT22;3324;50.796;7.228;2024-03-06T15:53:05;13.30;99.90
6581;DHT22;3324;50.796;7.228;2024-03-06T15:55:30;13.20;99.90
6581;DHT22;3324;50.796;7.228;2024-03-06T15:57:56;13.10;99.90
6581;DHT22;3324;50.796;7.228;2024-03-06T16:00:21;13.10;99.90
6581;DHT22;3324;50.796;7.228;2024-03-06T16:02:47;13.10;99.90
6581;DHT22;3324;50.796;7.228;2024-03-06T16:05:13;13.00;99.90
6581;DHT22;3324;50.796;7.228;2024-03-06T16:07:39;12.90;99.90
6581;DHT22;3324;50.796;7.228;2024-03-06T16:10:04;12.80;99.90